createdAt,value
2019-04-21T00:01:54.532Z,9.14
2019-04-21T00:04:38.133Z,9.08
2019-04-21T00:07:22.175Z,9.07
2019-04-21T00:12:26.881Z,8.92
2019-04-21T00:14:51.240Z,8.88
2019-04-21T00:17:17.770Z,8.87
2019-04-21T00:19:47.806Z,8.86
2019-04-21T00:22:34.133Z,8.84
2019-04-21T00:25:07.741Z,8.75
2019-04-21T00:27:44.036Z,8.72
2019-04-21T00:30:21.825Z,8.71
2019-04-21T00:32:45.057Z,8.69
2019-04-21T00:35:11.741Z,8.70
2019-04-21T00:38:00.355Z,8.68
2019-04-21T00:40:34.550Z,8.69
2019-04-21T00:43:06.393Z,8.68
2019-04-21T00:45:36.273Z,8.69
2019-04-21T00:48:16.599Z,8.72
2019-04-21T00:51:03.558Z,8.70
2019-04-21T00:53:35.701Z,8.75
2019-04-21T00:56:03.507Z,8.76
2019-04-21T00:58:39.290Z,8.74
2019-04-21T01:01:09.038Z,8.73
2019-04-21T01:03:47.444Z,8.73
2019-04-21T01:06:16.365Z,8.72
2019-04-21T01:08:47.386Z,8.76
2019-04-21T01:11:17.881Z,8.81
2019-04-21T01:14:00.984Z,8.75
2019-04-21T01:19:02.183Z,8.67
2019-04-21T01:21:14.366Z,8.54
2019-04-21T01:23:46.405Z,8.43
2019-04-21T01:26:31.092Z,8.36
2019-04-21T01:29:07.042Z,8.38
2019-04-21T01:31:43.496Z,8.38
2019-04-21T01:34:15.094Z,8.40
2019-04-21T01:36:47.438Z,8.41
2019-04-21T01:39:29.416Z,8.41
2019-04-21T01:41:57.051Z,8.43
2019-04-21T01:44:36.158Z,8.47
2019-04-21T01:46:58.619Z,8.48
2019-04-21T01:49:33.358Z,8.49
2019-04-21T01:52:24.649Z,8.50
2019-04-21T01:55:06.707Z,8.50
2019-04-21T01:57:44.016Z,8.49
2019-04-21T02:00:13.274Z,8.46
2019-04-21T02:03:04.292Z,8.41
2019-04-21T02:05:32.682Z,8.34
2019-04-21T02:08:01.028Z,8.36
2019-04-21T02:10:44.456Z,8.41
2019-04-21T02:13:10.273Z,8.41
2019-04-21T02:15:42.336Z,8.37
2019-04-21T02:18:11.942Z,8.31
2019-04-21T02:20:40.179Z,8.30
2019-04-21T02:23:34.466Z,8.35
2019-04-21T02:25:57.509Z,8.36
2019-04-21T02:28:36.840Z,8.35
2019-04-21T02:33:53.073Z,8.36
2019-04-21T02:36:34.526Z,8.36
2019-04-21T02:39:03.380Z,8.31
2019-04-21T02:41:21.436Z,8.26
2019-04-21T02:44:04.225Z,8.18
2019-04-21T02:49:04.140Z,8.10
2019-04-21T02:56:48.197Z,8.16
2019-04-21T02:59:28.530Z,8.12
2019-04-21T03:02:03.721Z,8.00
2019-04-21T03:04:47.565Z,7.68
2019-04-21T03:07:27.554Z,7.37
2019-04-21T03:22:31.754Z,6.62
2019-04-21T03:28:01.820Z,6.56
2019-04-21T03:33:23.871Z,6.64
2019-04-21T03:38:14.827Z,6.80
2019-04-21T03:40:27.241Z,7.00
2019-04-21T03:43:04.426Z,7.14
2019-04-21T03:45:39.212Z,7.21
2019-04-21T03:48:11.506Z,7.27
2019-04-21T03:50:41.142Z,7.41
2019-04-21T03:53:20.862Z,7.57
2019-04-21T03:55:53.049Z,7.65
2019-04-21T04:01:08.032Z,7.93
2019-04-21T04:04:05.452Z,8.01
2019-04-21T04:06:49.720Z,8.13
2019-04-21T04:09:19.455Z,8.22
2019-04-21T04:11:58.750Z,8.37
2019-04-21T04:14:24.989Z,8.55
2019-04-21T04:17:06.436Z,8.74
2019-04-21T04:22:04.034Z,9.04
2019-04-21T04:24:50.240Z,9.17
2019-04-21T04:27:20.869Z,9.31
2019-04-21T04:32:21.160Z,9.58
2019-04-21T04:34:57.242Z,9.69
2019-04-21T04:40:05.877Z,9.85
2019-04-21T04:45:15.408Z,10.00
2019-04-21T04:47:37.292Z,10.15
2019-04-21T04:49:59.934Z,10.27
2019-04-21T04:52:48.578Z,10.37
2019-04-21T04:55:20.909Z,10.50
2019-04-21T05:02:58.363Z,10.73
2019-04-21T05:05:30.085Z,10.86
2019-04-21T05:08:08.622Z,11.00
2019-04-21T05:10:49.094Z,11.12
2019-04-21T05:13:09.943Z,11.25
2019-04-21T05:15:44.441Z,11.30
2019-04-21T05:18:15.170Z,11.39
2019-04-21T05:20:52.278Z,11.47
2019-04-21T05:23:19.406Z,11.52
2019-04-21T05:25:41.684Z,11.62
2019-04-21T05:28:15.218Z,11.70
2019-04-21T05:31:06.236Z,11.78
2019-04-21T05:36:14.246Z,12.00
2019-04-21T05:39:04.608Z,12.10
2019-04-21T05:41:31.320Z,12.21
2019-04-21T05:44:12.553Z,12.28
2019-04-21T05:46:53.475Z,12.43
2019-04-21T05:49:25.304Z,12.45
2019-04-21T05:51:58.360Z,12.53
2019-04-21T05:54:44.358Z,12.64
2019-04-21T05:57:05.823Z,12.75
2019-04-21T05:59:47.823Z,12.90
2019-04-21T06:02:23.666Z,13.04
2019-04-21T06:05:05.641Z,13.10
2019-04-21T06:07:29.021Z,13.24
2019-04-21T06:09:59.644Z,13.30
2019-04-21T06:12:35.924Z,13.41
2019-04-21T06:15:10.122Z,13.53
2019-04-21T06:17:43.865Z,13.70
2019-04-21T06:20:12.523Z,13.82
2019-04-21T06:22:50.516Z,13.81
2019-04-21T06:25:40.995Z,13.89
2019-04-21T06:27:58.497Z,13.97
2019-04-21T06:30:33.647Z,14.02
2019-04-21T06:32:59.413Z,14.18
2019-04-21T06:38:23.411Z,14.31
2019-04-21T06:40:56.167Z,14.44
2019-04-21T06:43:37.743Z,14.62
2019-04-21T06:46:02.217Z,14.74
2019-04-21T06:48:32.999Z,14.81
2019-04-21T06:51:13.743Z,14.81
2019-04-21T06:53:44.778Z,14.87
2019-04-21T06:56:18.806Z,14.83
2019-04-21T06:58:42.895Z,14.99
2019-04-21T07:01:21.640Z,15.05
2019-04-21T07:04:03.092Z,15.07
2019-04-21T07:06:32.452Z,15.12
2019-04-21T07:09:14.028Z,15.11
2019-04-21T07:11:25.540Z,15.13
2019-04-21T07:14:25.652Z,15.19
2019-04-21T07:16:44.696Z,15.35
2019-04-21T07:19:20.410Z,15.31
2019-04-21T07:21:45.485Z,15.28
2019-04-21T07:24:30.435Z,15.21
2019-04-21T07:26:55.336Z,15.35
2019-04-21T07:29:29.113Z,15.47
2019-04-21T07:34:49.823Z,15.50
2019-04-21T07:37:06.404Z,15.51
2019-04-21T07:39:39.117Z,15.58
2019-04-21T07:42:09.138Z,15.73
2019-04-21T07:44:40.889Z,15.73
2019-04-21T07:47:23.489Z,15.86
2019-04-21T07:50:00.978Z,15.93
2019-04-21T07:52:48.971Z,16.14
2019-04-21T07:55:21.595Z,16.12
2019-04-21T07:57:36.628Z,16.22
2019-04-21T08:00:21.276Z,16.29
2019-04-21T08:02:51.071Z,16.36
2019-04-21T08:05:19.859Z,16.41
2019-04-21T08:07:57.167Z,16.42
2019-04-21T08:10:28.634Z,16.56
2019-04-21T08:12:59.487Z,16.65
2019-04-21T08:15:38.276Z,16.68
2019-04-21T08:18:11.712Z,16.55
2019-04-21T08:20:45.262Z,16.67
2019-04-21T08:23:20.294Z,16.93
2019-04-21T08:28:24.163Z,16.99
2019-04-21T08:30:54.346Z,17.06
2019-04-21T08:33:36.633Z,17.21
2019-04-21T08:38:35.860Z,16.89
2019-04-21T08:41:11.088Z,16.76
2019-04-21T08:43:42.561Z,16.79
2019-04-21T08:46:13.550Z,16.61
2019-04-21T08:48:52.808Z,16.77
2019-04-21T08:51:30.243Z,16.91
2019-04-21T08:53:57.413Z,16.93
2019-04-21T08:56:30.390Z,17.07
2019-04-21T08:59:20.470Z,17.04
2019-04-21T09:02:12.692Z,16.92
2019-04-21T09:04:36.709Z,16.86
2019-04-21T09:07:12.826Z,17.24
2019-04-21T09:09:47.473Z,17.41
2019-04-21T09:12:16.105Z,17.58
2019-04-21T09:14:50.272Z,17.62
2019-04-21T09:17:17.710Z,17.71
2019-04-21T09:20:06.278Z,17.48
2019-04-21T09:22:33.002Z,17.46
2019-04-21T09:25:04.392Z,17.33
2019-04-21T09:27:30.745Z,17.40
2019-04-21T09:29:57.611Z,17.58
2019-04-21T09:32:29.415Z,17.93
2019-04-21T09:35:03.469Z,18.04
2019-04-21T09:37:43.269Z,18.09
2019-04-21T09:40:07.036Z,18.07
2019-04-21T09:42:47.378Z,18.05
2019-04-21T09:45:12.560Z,18.17
2019-04-21T09:47:55.657Z,18.04
2019-04-21T09:50:19.861Z,18.18
2019-04-21T09:52:58.254Z,18.22
2019-04-21T09:55:31.475Z,18.17
2019-04-21T09:58:10.014Z,17.96
2019-04-21T10:00:44.805Z,17.92
2019-04-21T10:03:08.767Z,17.80
2019-04-21T10:05:38.961Z,17.74
2019-04-21T10:08:10.626Z,17.43
2019-04-21T10:10:42.522Z,17.69
2019-04-21T10:13:15.037Z,17.63
2019-04-21T10:15:49.272Z,17.66
2019-04-21T10:18:22.058Z,17.87
2019-04-21T10:20:54.706Z,17.77
2019-04-21T10:23:27.462Z,17.73
2019-04-21T10:25:59.086Z,17.92
2019-04-21T10:28:31.060Z,17.84
2019-04-21T10:31:02.748Z,17.79
2019-04-21T10:33:34.648Z,17.64
2019-04-21T10:36:06.903Z,17.61
2019-04-21T10:38:44.686Z,17.52
2019-04-21T10:41:12.247Z,17.62
2019-04-21T10:43:45.116Z,17.84
2019-04-21T10:46:17.012Z,17.99
2019-04-21T10:48:48.791Z,17.80
2019-04-21T10:51:21.224Z,17.64
2019-04-21T10:53:55.889Z,17.36
2019-04-21T10:56:33.186Z,17.27
2019-04-21T10:59:00.837Z,17.12
2019-04-21T11:01:32.846Z,17.03
2019-04-21T11:04:07.632Z,16.81
2019-04-21T11:06:39.376Z,16.92
2019-04-21T11:09:11.646Z,16.95
2019-04-21T11:11:46.489Z,16.96
2019-04-21T11:14:17.790Z,16.85
2019-04-21T11:16:51.518Z,16.76
2019-04-21T11:19:24.158Z,16.82
2019-04-21T11:21:56.852Z,16.89
2019-04-21T11:24:29.189Z,16.85
2019-04-21T11:27:01.877Z,16.88
2019-04-21T11:29:35.104Z,16.79
2019-04-21T11:32:07.175Z,16.74
2019-04-21T11:34:39.058Z,16.56
2019-04-21T11:37:12.547Z,16.52
2019-04-21T11:39:51.975Z,16.48
2019-04-21T11:42:21.816Z,16.38
2019-04-21T11:44:53.529Z,16.31
2019-04-21T11:47:36.414Z,16.46
2019-04-21T11:50:08.842Z,16.45
2019-04-21T11:52:41.063Z,16.44
2019-04-21T11:55:13.096Z,16.42
2019-04-21T11:57:49.480Z,16.40
2019-04-21T12:00:19.820Z,16.26
2019-04-21T12:02:51.484Z,16.28
2019-04-21T12:05:23.622Z,16.26
2019-04-21T12:07:58.381Z,16.27
2019-04-21T12:10:29.278Z,16.19
2019-04-21T12:13:01.692Z,16.10
2019-04-21T12:15:35.017Z,16.16
2019-04-21T12:18:07.988Z,16.32
2019-04-21T12:20:39.770Z,16.37
2019-04-21T12:23:12.230Z,16.36
2019-04-21T12:25:51.568Z,16.39
2019-04-21T12:28:23.878Z,16.36
2019-04-21T12:30:56.038Z,16.21
2019-04-21T12:33:45.916Z,16.04
2019-04-21T12:36:17.920Z,16.03
2019-04-21T12:38:55.906Z,16.06
2019-04-21T12:41:24.520Z,16.12
2019-04-21T12:43:57.005Z,16.22
2019-04-21T12:46:29.774Z,16.09
2019-04-21T12:49:02.147Z,16.03
2019-04-21T12:51:33.856Z,15.82
2019-04-21T12:54:05.923Z,15.91
2019-04-21T12:56:37.931Z,15.88
2019-04-21T12:59:10.057Z,16.01
2019-04-21T13:01:43.042Z,15.94
2019-04-21T13:04:15.589Z,15.91
2019-04-21T13:06:47.628Z,15.92
2019-04-21T13:09:20.484Z,15.95
2019-04-21T13:11:53.080Z,15.96
2019-04-21T13:14:26.058Z,15.90
2019-04-21T13:16:59.436Z,15.90
2019-04-21T13:19:31.547Z,15.89
2019-04-21T13:22:03.844Z,15.92
2019-04-21T13:24:35.918Z,15.96
2019-04-21T13:27:09.475Z,16.07
2019-04-21T13:29:41.974Z,16.08
2019-04-21T13:32:14.351Z,16.08
2019-04-21T13:34:47.808Z,16.04
2019-04-21T13:37:19.637Z,16.07
2019-04-21T13:40:24.926Z,15.99
2019-04-21T13:42:48.525Z,16.09
2019-04-21T13:45:18.361Z,16.10
2019-04-21T13:47:50.383Z,16.00
2019-04-21T13:50:23.576Z,16.05
2019-04-21T13:52:56.548Z,15.95
2019-04-21T13:55:29.625Z,15.98
2019-04-21T13:58:02.118Z,15.88
2019-04-21T14:00:34.041Z,15.80
2019-04-21T14:03:07.092Z,15.81
2019-04-21T14:05:40.180Z,15.86
2019-04-21T14:08:13.329Z,15.79
2019-04-21T14:10:44.987Z,15.79
2019-04-21T14:13:16.796Z,15.75
2019-04-21T14:15:50.436Z,15.73
2019-04-21T14:18:22.657Z,15.71
2019-04-21T14:20:55.428Z,15.73
2019-04-21T14:23:34.500Z,15.73
2019-04-21T14:26:01.637Z,15.69
2019-04-21T14:28:33.551Z,15.64
2019-04-21T14:31:06.189Z,15.67
2019-04-21T14:33:38.238Z,15.68
2019-04-21T14:36:10.669Z,15.74
2019-04-21T14:38:42.767Z,15.77
2019-04-21T14:41:14.881Z,15.81
2019-04-21T14:43:48.000Z,15.86
2019-04-21T14:46:31.204Z,15.83
2019-04-21T14:49:15.136Z,15.92
2019-04-21T14:51:58.907Z,15.97
2019-04-21T14:54:36.466Z,15.85
2019-04-21T14:57:09.341Z,15.84
2019-04-21T14:59:41.114Z,15.78
2019-04-21T15:02:14.059Z,15.78
2019-04-21T15:04:45.938Z,15.73
2019-04-21T15:07:17.513Z,15.62
2019-04-21T15:10:02.528Z,15.56
2019-04-21T15:12:25.776Z,15.49
2019-04-21T15:15:00.109Z,15.35
2019-04-21T15:17:33.656Z,15.36
2019-04-21T15:20:13.692Z,15.39
2019-04-21T15:22:46.101Z,15.30
2019-04-21T15:25:21.808Z,15.20
2019-04-21T15:27:54.966Z,15.08
2019-04-21T15:30:26.895Z,14.97
2019-04-21T15:32:58.560Z,14.86
2019-04-21T15:35:31.050Z,14.78
2019-04-21T15:38:04.456Z,14.75
2019-04-21T15:40:46.796Z,14.72
2019-04-21T15:43:13.144Z,14.73
2019-04-21T15:45:46.697Z,14.69
2019-04-21T15:48:18.293Z,14.69
2019-04-21T15:50:51.770Z,14.69
2019-04-21T15:53:29.720Z,14.63
2019-04-21T15:56:08.803Z,14.57
2019-04-21T15:58:42.888Z,14.54
2019-04-21T16:01:16.465Z,14.49
2019-04-21T16:03:49.002Z,14.50
2019-04-21T16:06:21.559Z,14.44
2019-04-21T16:08:55.496Z,14.41
2019-04-21T16:11:28.082Z,14.36
2019-04-21T16:13:59.762Z,14.38
2019-04-21T16:16:33.766Z,14.34
2019-04-21T16:19:06.116Z,14.24
2019-04-21T16:21:42.154Z,14.28
2019-04-21T16:24:12.403Z,14.26
2019-04-21T16:26:44.670Z,14.24
2019-04-21T16:29:17.381Z,14.18
2019-04-21T16:31:51.150Z,14.17
2019-04-21T16:34:34.464Z,14.11
2019-04-21T16:36:56.092Z,14.15
2019-04-21T16:39:27.852Z,14.11
2019-04-21T16:42:02.558Z,14.08
2019-04-21T16:44:34.689Z,14.06
2019-04-21T16:47:09.624Z,14.03
2019-04-21T16:49:41.342Z,14.02
2019-04-21T16:52:16.264Z,14.02
2019-04-21T16:54:49.824Z,14.01
2019-04-21T16:57:23.888Z,13.97
2019-04-21T16:59:57.064Z,13.91
2019-04-21T17:02:30.294Z,13.85
2019-04-21T17:05:02.635Z,13.80
2019-04-21T17:07:36.737Z,13.80
2019-04-21T17:10:08.725Z,13.74
2019-04-21T17:12:41.746Z,13.74
2019-04-21T17:15:33.790Z,13.74
2019-04-21T17:18:06.141Z,13.70
2019-04-21T17:20:34.174Z,13.69
2019-04-21T17:22:55.572Z,13.70
2019-04-21T17:25:29.363Z,13.65
2019-04-21T17:28:01.613Z,13.60
2019-04-21T17:30:34.709Z,13.62
2019-04-21T17:33:11.256Z,13.58
2019-04-21T17:35:40.780Z,13.56
2019-04-21T17:38:14.163Z,13.52
2019-04-21T17:40:45.909Z,13.48
2019-04-21T17:43:19.723Z,13.47
2019-04-21T17:45:53.395Z,13.39
2019-04-21T17:48:27.015Z,13.30
2019-04-21T17:51:03.621Z,13.27
2019-04-21T17:53:44.941Z,13.23
2019-04-21T17:56:41.300Z,13.22
2019-04-21T17:59:09.318Z,13.21
2019-04-21T18:01:43.638Z,13.20
2019-04-21T18:04:18.587Z,13.21
2019-04-21T18:06:49.103Z,13.19
2019-04-21T18:09:36.714Z,13.10
2019-04-21T18:12:05.773Z,13.09
2019-04-21T18:14:20.731Z,13.00
2019-04-21T18:16:53.513Z,12.93
2019-04-21T18:19:28.799Z,12.86
2019-04-21T18:22:17.485Z,12.78
2019-04-21T18:25:01.610Z,12.73
2019-04-21T18:27:26.700Z,12.68
2019-04-21T18:30:02.550Z,12.63
2019-04-21T18:32:38.848Z,12.62
2019-04-21T18:35:22.722Z,12.63
2019-04-21T18:38:04.434Z,12.65
2019-04-21T18:40:36.436Z,12.65
2019-04-21T18:43:43.756Z,12.65
2019-04-21T18:48:27.395Z,12.63
2019-04-21T18:51:02.835Z,12.61
2019-04-21T18:53:48.075Z,12.54
2019-04-21T18:56:15.521Z,12.55
2019-04-21T18:58:44.851Z,12.54
2019-04-21T19:01:24.187Z,12.50
2019-04-21T19:03:58.400Z,12.44
2019-04-21T19:06:58.407Z,12.43
2019-04-21T19:10:01.822Z,12.36
2019-04-21T19:12:23.666Z,12.34
2019-04-21T19:14:52.217Z,12.33
2019-04-21T19:18:24.853Z,12.29
2019-04-21T19:20:11.777Z,12.24
2019-04-21T19:22:42.002Z,12.14
2019-04-21T19:25:20.610Z,12.14
2019-04-21T19:27:55.045Z,12.10
2019-04-21T19:30:42.976Z,12.08
2019-04-21T19:33:10.386Z,11.98
2019-04-21T19:35:23.610Z,11.97
2019-04-21T19:38:02.137Z,11.91
2019-04-21T19:40:49.251Z,11.91
2019-04-21T19:43:31.471Z,11.89
2019-04-21T19:46:04.317Z,11.86
2019-04-21T19:48:44.543Z,11.86
2019-04-21T19:51:10.443Z,11.84
2019-04-21T19:53:41.679Z,11.84
2019-04-21T19:56:02.192Z,11.80
2019-04-21T19:58:39.134Z,11.78
2019-04-21T20:01:09.699Z,11.71
2019-04-21T20:03:43.201Z,11.65
2019-04-21T20:06:33.035Z,11.60
2019-04-21T20:09:12.578Z,11.55
2019-04-21T20:11:41.767Z,11.56
2019-04-21T20:16:49.091Z,11.44
2019-04-21T20:19:12.014Z,11.38
2019-04-21T20:21:43.120Z,11.38
2019-04-21T20:24:19.865Z,11.34
2019-04-21T20:27:01.283Z,11.39
2019-04-21T20:29:46.906Z,11.37
2019-04-21T20:32:21.317Z,11.40
2019-04-21T20:34:56.256Z,11.34
2019-04-21T20:37:22.538Z,11.33
2019-04-21T20:39:46.201Z,11.36
2019-04-21T20:42:20.877Z,11.35
2019-04-21T20:45:16.727Z,11.33
2019-04-21T20:47:25.645Z,11.30
2019-04-21T20:50:03.328Z,11.23
2019-04-21T20:52:46.481Z,11.22
2019-04-21T20:55:05.864Z,11.16
2019-04-21T20:57:44.558Z,11.12
2019-04-21T21:00:19.895Z,11.06
2019-04-21T21:02:55.941Z,11.00
2019-04-21T21:05:22.094Z,11.00
2019-04-21T21:08:06.521Z,11.00
2019-04-21T21:10:34.785Z,10.94
2019-04-21T21:13:14.762Z,10.93
2019-04-21T21:15:44.560Z,10.88
2019-04-21T21:18:26.541Z,10.85
2019-04-21T21:20:52.939Z,10.77
2019-04-21T21:23:20.454Z,10.74
2019-04-21T21:26:00.638Z,10.67
2019-04-21T21:28:29.032Z,10.68
2019-04-21T21:31:07.415Z,10.67
2019-04-21T21:33:49.002Z,10.67
2019-04-21T21:36:13.947Z,10.68
2019-04-21T21:38:52.918Z,10.65
2019-04-21T21:41:14.136Z,10.64
2019-04-21T21:43:37.724Z,10.58
2019-04-21T21:46:24.883Z,10.54
2019-04-21T21:48:53.843Z,10.53
2019-04-21T21:51:29.376Z,10.51
2019-04-21T21:53:50.636Z,10.46
2019-04-21T21:56:22.783Z,10.44
2019-04-21T21:58:55.193Z,10.41
2019-04-21T22:01:37.714Z,10.43
2019-04-21T22:04:10.458Z,10.44
2019-04-21T22:06:42.133Z,10.42
2019-04-21T22:09:12.498Z,10.48
2019-04-21T22:11:44.523Z,10.47
2019-04-21T22:14:24.892Z,10.47
2019-04-21T22:17:07.644Z,10.39
2019-04-21T22:19:48.962Z,10.42
2019-04-21T22:22:13.948Z,10.35
2019-04-21T22:24:46.449Z,10.34
2019-04-21T22:27:05.250Z,10.30
2019-04-21T22:29:41.854Z,10.29
2019-04-21T22:32:17.380Z,10.26
2019-04-21T22:34:52.368Z,10.29
2019-04-21T22:37:30.012Z,10.33
2019-04-21T22:40:05.985Z,10.29
2019-04-21T22:42:29.621Z,10.18
2019-04-21T22:44:58.591Z,10.15
2019-04-21T22:47:34.563Z,10.09
2019-04-21T22:50:06.466Z,10.07
2019-04-21T22:52:39.364Z,10.05
2019-04-21T22:55:19.248Z,10.09
2019-04-21T22:57:50.975Z,10.10
2019-04-21T23:00:20.866Z,10.09
2019-04-21T23:03:05.281Z,9.95
2019-04-21T23:05:34.375Z,9.90
2019-04-21T23:08:05.237Z,9.92
2019-04-21T23:10:35.353Z,9.84
2019-04-21T23:13:11.242Z,9.84
2019-04-21T23:15:47.083Z,9.79
2019-04-21T23:18:30.741Z,9.73
2019-04-21T23:21:03.305Z,9.73
2019-04-21T23:23:39.653Z,9.70
2019-04-21T23:26:14.517Z,9.67
2019-04-21T23:28:46.309Z,9.62
2019-04-21T23:31:26.134Z,9.61
2019-04-21T23:33:36.612Z,9.53
2019-04-21T23:36:13.653Z,9.48
2019-04-21T23:38:46.349Z,9.48
2019-04-21T23:41:17.334Z,9.36
2019-04-21T23:43:55.240Z,9.26
2019-04-21T23:46:26.867Z,9.25
2019-04-21T23:49:07.427Z,9.19
2019-04-21T23:51:39.604Z,9.19
2019-04-21T23:54:02.360Z,9.14
2019-04-21T23:56:39.132Z,9.13
2019-04-21T23:59:10.893Z,9.18
